Time;durP1;ratioP1;P1;durP2;ratioP2;P2;SDS_P1;SDS_P2;PMS_P1;PMS_P2;Temp;Humidity;BMP_temperature;BMP_pressure;BME280_temperature;BME280_humidity;BME280_pressure;Samples;Min_cycle;Max_cycle;Signal;HPM_P1;HPM_P2
2021/08/19 00:00:49;;;;;;;1.40;0.82;;;;;;;;;;5028983;28;20030;-76
2021/08/19 00:03:16;;;;;;;2.85;1.00;;;;;;;;;;5029277;28;20033;-76
2021/08/19 00:05:42;;;;;;;2.40;0.88;;;;;;;;;;5030753;28;20030;-76
2021/08/19 00:08:08;;;;;;;1.38;0.98;;;;;;;;;;5026916;28;20034;-76
2021/08/19 00:10:34;;;;;;;2.10;1.70;;;;;;;;;;5016763;28;20068;-77
2021/08/19 00:13:01;;;;;;;4.20;1.20;;;;;;;;;;5015862;28;20108;-76
2021/08/19 00:15:28;;;;;;;1.05;0.80;;;;;;;;;;4997833;28;20034;-75
2021/08/19 00:17:54;;;;;;;1.85;0.80;;;;;;;;;;5016274;28;20394;-77
2021/08/19 00:20:20;;;;;;;2.53;0.98;;;;;;;;;;5019749;28;20093;-77
2021/08/19 00:22:46;;;;;;;1.40;0.98;;;;;;;;;;5017944;28;20026;-77
2021/08/19 00:25:12;;;;;;;1.98;1.13;;;;;;;;;;5015329;28;20121;-77
2021/08/19 00:27:38;;;;;;;2.45;0.90;;;;;;;;;;5014026;28;20026;-77
2021/08/19 00:30:05;;;;;;;0.88;0.80;;;;;;;;;;5014754;28;20057;-77
2021/08/19 00:32:31;;;;;;;1.73;0.95;;;;;;;;;;5013833;28;20050;-76
2021/08/19 00:34:57;;;;;;;0.82;0.80;;;;;;;;;;5013414;28;20029;-77
2021/08/19 00:37:24;;;;;;;3.40;1.08;;;;;;;;;;4996434;28;20026;-77
2021/08/19 00:39:50;;;;;;;1.92;0.93;;;;;;;;;;5013447;28;20037;-77
2021/08/19 00:42:16;;;;;;;3.65;1.20;;;;;;;;;;5013088;28;20034;-77
2021/08/19 00:44:46;;;;;;;2.60;0.90;;;;;;;;;;5014139;28;20030;-77
2021/08/19 00:47:12;;;;;;;1.05;0.88;;;;;;;;;;5013241;28;20050;-77
2021/08/19 00:49:38;;;;;;;2.78;1.30;;;;;;;;;;5012183;28;20050;-77
2021/08/19 00:52:04;;;;;;;1.45;0.80;;;;;;;;;;4994562;28;20030;-76
2021/08/19 00:54:31;;;;;;;2.80;1.02;;;;;;;;;;5012311;28;20490;-77
2021/08/19 00:56:57;;;;;;;1.95;1.00;;;;;;;;;;4994903;28;20029;-76
2021/08/19 00:59:24;;;;;;;1.85;1.10;;;;;;;;;;5013116;28;20394;-77
2021/08/19 01:01:54;;;;;;;4.00;1.10;;;;;;;;;;5014290;28;20060;-77
2021/08/19 01:04:20;;;;;;;1.77;1.13;;;;;;;;;;5021211;28;20030;-75
2021/08/19 01:06:46;;;;;;;1.70;1.05;;;;;;;;;;5024220;28;20030;-77
2021/08/19 01:09:12;;;;;;;5.30;1.20;;;;;;;;;;5027548;28;20041;-78
2021/08/19 01:11:43;;;;;;;2.85;1.20;;;;;;;;;;5020821;28;20026;-79
2021/08/19 01:14:09;;;;;;;3.70;1.30;;;;;;;;;;5018967;28;20026;-78
2021/08/19 01:16:35;;;;;;;3.03;1.55;;;;;;;;;;4999739;28;20431;-78
2021/08/19 01:19:01;;;;;;;1.75;1.25;;;;;;;;;;5000260;28;20026;-78
2021/08/19 01:21:27;;;;;;;4.13;1.20;;;;;;;;;;5018802;28;20087;-78
2021/08/19 01:23:53;;;;;;;4.65;1.20;;;;;;;;;;5018715;28;20524;-79
2021/08/19 01:26:20;;;;;;;4.32;1.58;;;;;;;;;;5018558;28;20030;-78
2021/08/19 01:28:47;;;;;;;1.63;1.23;;;;;;;;;;5000712;28;20049;-78
2021/08/19 01:31:14;;;;;;;3.03;1.40;;;;;;;;;;5018258;28;20026;-77
2021/08/19 01:33:44;;;;;;;2.25;1.20;;;;;;;;;;5018104;28;20026;-78
2021/08/19 01:36:11;;;;;;;4.47;1.50;;;;;;;;;;5018361;28;20498;-78
2021/08/19 01:38:38;;;;;;;2.75;1.40;;;;;;;;;;5000488;28;20437;-76
2021/08/19 01:41:04;;;;;;;2.97;1.60;;;;;;;;;;5017636;28;20033;-78
2021/08/19 01:43:30;;;;;;;3.38;1.40;;;;;;;;;;5051860;22;20049;-81
2021/08/19 01:46:03;;;;;;;3.97;1.40;;;;;;;;;;5021369;28;20029;-81
2021/08/19 01:48:30;;;;;;;2.17;1.33;;;;;;;;;;5038867;28;20021;-81
2021/08/19 01:50:56;;;;;;;3.58;1.55;;;;;;;;;;5021008;28;20025;-80
2021/08/19 01:53:23;;;;;;;3.78;1.38;;;;;;;;;;5039620;28;20508;-80
2021/08/19 01:55:50;;;;;;;3.78;1.60;;;;;;;;;;5028752;28;20110;-79
2021/08/19 01:58:17;;;;;;;2.75;1.55;;;;;;;;;;5045335;28;20029;-81
2021/08/19 02:00:43;;;;;;;3.03;1.48;;;;;;;;;;5022002;28;20430;-80
2021/08/19 02:03:09;;;;;;;2.38;1.42;;;;;;;;;;5037748;28;20022;-80
2021/08/19 02:05:38;;;;;;;4.05;1.50;;;;;;;;;;5038189;28;20029;-80
2021/08/19 02:08:04;;;;;;;3.03;1.55;;;;;;;;;;5039691;28;20327;-82
2021/08/19 02:10:30;;;;;;;2.17;1.55;;;;;;;;;;5023574;28;20034;-83
2021/08/19 02:12:56;;;;;;;3.70;1.70;;;;;;;;;;5023856;28;20559;-82
2021/08/19 02:15:22;;;;;;;3.47;1.58;;;;;;;;;;5040281;28;20079;-81
2021/08/19 02:17:48;;;;;;;2.35;1.70;;;;;;;;;;5038202;28;20034;-81
2021/08/19 02:20:14;;;;;;;4.72;1.98;;;;;;;;;;5036747;28;20057;-80
2021/08/19 02:22:40;;;;;;;2.55;1.60;;;;;;;;;;5021679;28;20033;-81
2021/08/19 02:25:06;;;;;;;3.08;1.83;;;;;;;;;;5039600;28;20033;-80
2021/08/19 02:27:32;;;;;;;5.47;2.03;;;;;;;;;;5042610;28;20026;-79
2021/08/19 02:29:58;;;;;;;3.35;2.08;;;;;;;;;;5044911;28;20026;-80
2021/08/19 02:32:26;;;;;;;2.58;1.88;;;;;;;;;;5019487;28;20506;-81
2021/08/19 02:34:52;;;;;;;5.13;1.70;;;;;;;;;;5037250;28;20033;-80
2021/08/19 02:37:19;;;;;;;6.65;2.15;;;;;;;;;;5037612;28;20036;-80
2021/08/19 02:39:45;;;;;;;2.33;1.80;;;;;;;;;;5020112;28;20132;-82
2021/08/19 02:42:11;;;;;;;4.85;1.70;;;;;;;;;;5036777;28;20065;-82
2021/08/19 02:44:37;;;;;;;4.25;1.45;;;;;;;;;;5019168;28;20494;-79
2021/08/19 02:47:03;;;;;;;2.85;1.75;;;;;;;;;;5019551;28;20025;-80
2021/08/19 02:49:29;;;;;;;4.28;1.90;;;;;;;;;;5036397;28;20100;-80
2021/08/19 02:51:55;;;;;;;4.18;2.10;;;;;;;;;;5036650;28;20025;-82
2021/08/19 02:54:21;;;;;;;2.60;1.95;;;;;;;;;;5037121;28;20040;-82
2021/08/19 02:56:47;;;;;;;4.50;1.70;;;;;;;;;;5037683;28;20033;-81
2021/08/19 02:59:13;;;;;;;3.38;1.92;;;;;;;;;;5037760;28;20099;-80
2021/08/19 03:01:39;;;;;;;4.45;1.70;;;;;;;;;;5037815;28;20112;-81
2021/08/19 03:04:05;;;;;;;1.95;1.55;;;;;;;;;;5037443;28;20057;-80
2021/08/19 03:06:31;;;;;;;2.70;1.85;;;;;;;;;;5020393;28;20033;-81
2021/08/19 03:08:57;;;;;;;4.50;1.88;;;;;;;;;;5019564;28;20021;-81
2021/08/19 03:11:23;;;;;;;3.65;1.80;;;;;;;;;;5037732;28;20029;-81
2021/08/19 03:13:49;;;;;;;3.40;1.88;;;;;;;;;;5037457;28;20030;-81
2021/08/19 03:16:15;;;;;;;2.08;1.70;;;;;;;;;;5037832;28;20030;-81
2021/08/19 03:18:42;;;;;;;2.20;1.67;;;;;;;;;;5037434;28;20029;-81
2021/08/19 03:21:09;;;;;;;2.25;1.67;;;;;;;;;;5041723;28;20026;-82
2021/08/19 03:23:36;;;;;;;4.15;1.63;;;;;;;;;;5038986;28;20402;-81
2021/08/19 03:26:04;;;;;;;4.88;1.77;;;;;;;;;;5037869;28;20028;-80
2021/08/19 03:28:30;;;;;;;2.13;1.50;;;;;;;;;;5020370;28;20081;-82
2021/08/19 03:30:58;;;;;;;4.00;2.05;;;;;;;;;;5036630;28;20056;-82
2021/08/19 03:33:24;;;;;;;3.17;1.88;;;;;;;;;;5036993;28;20025;-79
2021/08/19 03:35:50;;;;;;;3.45;1.52;;;;;;;;;;5037911;28;20401;-80
2021/08/19 03:38:16;;;;;;;3.72;1.90;;;;;;;;;;5038804;28;20033;-80
2021/08/19 03:40:42;;;;;;;2.35;1.80;;;;;;;;;;5038284;28;20032;-80
2021/08/19 03:43:08;;;;;;;2.50;1.95;;;;;;;;;;5020033;28;20114;-80
2021/08/19 03:45:34;;;;;;;4.13;2.17;;;;;;;;;;5003963;28;20026;-79
2021/08/19 03:48:00;;;;;;;5.68;2.95;;;;;;;;;;5020043;28;20029;-80
2021/08/19 03:50:27;;;;;;;2.63;1.70;;;;;;;;;;5016856;28;20030;-80
2021/08/19 03:52:53;;;;;;;4.60;2.22;;;;;;;;;;5016409;28;20030;-81
2021/08/19 03:55:19;;;;;;;2.60;1.65;;;;;;;;;;5015896;28;20029;-82
2021/08/19 03:57:46;;;;;;;5.30;2.22;;;;;;;;;;4999202;28;20048;-81
2021/08/19 04:00:13;;;;;;;2.90;1.67;;;;;;;;;;5016001;28;20022;-80
2021/08/19 04:02:39;;;;;;;2.90;1.70;;;;;;;;;;5016874;28;20029;-80
2021/08/19 04:05:05;;;;;;;2.42;1.40;;;;;;;;;;4998455;28;20080;-80
2021/08/19 04:07:31;;;;;;;2.22;1.58;;;;;;;;;;5016773;28;20030;-80
2021/08/19 04:09:57;;;;;;;3.78;1.60;;;;;;;;;;5016146;28;20022;-80
2021/08/19 04:12:23;;;;;;;2.38;1.60;;;;;;;;;;4998931;28;20030;-80
2021/08/19 04:14:49;;;;;;;2.33;1.50;;;;;;;;;;5027017;28;20029;-80
2021/08/19 04:17:15;;;;;;;3.08;1.98;;;;;;;;;;5036927;28;20470;-81
2021/08/19 04:19:41;;;;;;;3.80;1.95;;;;;;;;;;5035286;28;20033;-79
2021/08/19 04:22:07;;;;;;;3.75;1.90;;;;;;;;;;5034235;28;20025;-80
2021/08/19 04:24:33;;;;;;;2.58;1.70;;;;;;;;;;5034173;28;20025;-79
2021/08/19 04:26:59;;;;;;;3.03;1.85;;;;;;;;;;5034132;28;20052;-80
2021/08/19 04:29:25;;;;;;;5.80;1.73;;;;;;;;;;5033864;28;20036;-79
2021/08/19 04:31:51;;;;;;;3.63;1.65;;;;;;;;;;5034754;28;20532;-80
2021/08/19 04:34:17;;;;;;;3.65;1.88;;;;;;;;;;5016831;28;20021;-80
2021/08/19 04:36:45;;;;;;;4.63;1.90;;;;;;;;;;5034721;28;20030;-80
2021/08/19 04:39:11;;;;;;;4.25;1.88;;;;;;;;;;5016419;28;20406;-81
2021/08/19 04:41:37;;;;;;;2.70;1.60;;;;;;;;;;5034082;28;20076;-80
2021/08/19 04:44:03;;;;;;;2.08;1.58;;;;;;;;;;5011983;28;20030;-80
2021/08/19 04:46:29;;;;;;;2.90;1.63;;;;;;;;;;5015340;28;20159;-79
2021/08/19 04:48:58;;;;;;;2.10;1.40;;;;;;;;;;4999198;28;20041;-79
2021/08/19 04:51:24;;;;;;;2.95;1.80;;;;;;;;;;5017158;28;20022;-79
2021/08/19 04:53:50;;;;;;;3.50;1.50;;;;;;;;;;5017419;28;20120;-79
2021/08/19 04:56:16;;;;;;;3.95;1.88;;;;;;;;;;4999775;28;20044;-79
2021/08/19 04:58:42;;;;;;;2.72;1.60;;;;;;;;;;4996729;28;20037;-80
2021/08/19 05:01:08;;;;;;;3.88;1.73;;;;;;;;;;4996827;28;20030;-80
2021/08/19 05:03:34;;;;;;;1.90;1.50;;;;;;;;;;5013882;28;20463;-80
2021/08/19 05:06:00;;;;;;;2.85;1.88;;;;;;;;;;5013720;28;20116;-79
2021/08/19 05:08:26;;;;;;;3.78;1.80;;;;;;;;;;5013645;28;20033;-80
2021/08/19 05:10:52;;;;;;;2.70;2.10;;;;;;;;;;4996452;28;20030;-79
2021/08/19 05:13:18;;;;;;;3.67;2.00;;;;;;;;;;5017006;28;20026;-79
2021/08/19 05:15:44;;;;;;;3.10;1.80;;;;;;;;;;4998654;28;20056;-80
2021/08/19 05:18:10;;;;;;;5.80;2.15;;;;;;;;;;5013805;28;20087;-80
2021/08/19 05:20:36;;;;;;;3.47;1.77;;;;;;;;;;5013021;28;20402;-79
2021/08/19 05:23:02;;;;;;;4.25;1.67;;;;;;;;;;5014449;28;20030;-80
2021/08/19 05:25:28;;;;;;;5.00;1.92;;;;;;;;;;4996248;28;20030;-80
2021/08/19 05:27:54;;;;;;;2.55;2.03;;;;;;;;;;5013799;28;20057;-80
2021/08/19 05:30:20;;;;;;;3.10;2.28;;;;;;;;;;5013314;28;20022;-80
2021/08/19 05:32:46;;;;;;;3.92;2.42;;;;;;;;;;5014029;28;20085;-80
2021/08/19 05:35:12;;;;;;;4.53;2.20;;;;;;;;;;4997014;28;20034;-80
2021/08/19 05:37:38;;;;;;;5.55;2.30;;;;;;;;;;4996756;28;20061;-82
2021/08/19 05:40:04;;;;;;;3.08;2.33;;;;;;;;;;5017889;28;20526;-82
2021/08/19 05:42:31;;;;;;;4.22;2.13;;;;;;;;;;5017740;28;20038;-79
2021/08/19 05:44:57;;;;;;;3.30;2.20;;;;;;;;;;4997041;28;20041;-80
2021/08/19 05:47:23;;;;;;;2.28;1.90;;;;;;;;;;4996519;28;20022;-81
2021/08/19 05:49:49;;;;;;;2.90;2.13;;;;;;;;;;5012274;28;20107;-80
2021/08/19 05:52:15;;;;;;;4.47;2.30;;;;;;;;;;4995662;28;20076;-80
2021/08/19 05:54:42;;;;;;;3.08;1.98;;;;;;;;;;4981668;28;20034;-79
2021/08/19 05:57:08;;;;;;;2.78;1.88;;;;;;;;;;5017296;28;20034;-80
2021/08/19 05:59:34;;;;;;;4.15;2.33;;;;;;;;;;5016549;28;20498;-80
2021/08/19 06:02:00;;;;;;;9.23;2.45;;;;;;;;;;5017243;28;20036;-80
2021/08/19 06:04:26;;;;;;;4.30;2.50;;;;;;;;;;5017298;28;20034;-80
2021/08/19 06:06:52;;;;;;;7.18;2.33;;;;;;;;;;5017344;28;20367;-79
2021/08/19 06:09:19;;;;;;;5.93;2.65;;;;;;;;;;5016435;28;20098;-80
2021/08/19 06:11:45;;;;;;;3.33;2.47;;;;;;;;;;5017708;28;20030;-79
2021/08/19 06:14:11;;;;;;;4.82;2.40;;;;;;;;;;5017359;28;20030;-80
2021/08/19 06:16:37;;;;;;;3.42;2.40;;;;;;;;;;5017732;28;20506;-80
2021/08/19 06:19:03;;;;;;;3.20;2.28;;;;;;;;;;5015233;28;20406;-79
2021/08/19 06:21:29;;;;;;;5.97;2.47;;;;;;;;;;5017510;28;20112;-79
2021/08/19 06:23:55;;;;;;;6.55;2.65;;;;;;;;;;5016989;28;20026;-80
2021/08/19 06:26:21;;;;;;;11.98;7.22;;;;;;;;;;5017447;28;20034;-80
2021/08/19 06:28:47;;;;;;;5.40;2.95;;;;;;;;;;5017193;28;20426;-80
2021/08/19 06:31:13;;;;;;;3.88;2.35;;;;;;;;;;5017750;28;20033;-79
2021/08/19 06:33:39;;;;;;;3.97;2.42;;;;;;;;;;5017587;28;20501;-80
2021/08/19 06:36:07;;;;;;;4.60;2.67;;;;;;;;;;5016849;28;20049;-80
2021/08/19 06:38:33;;;;;;;3.17;2.28;;;;;;;;;;5017381;28;20487;-80
2021/08/19 06:40:59;;;;;;;5.32;2.50;;;;;;;;;;5016972;28;20041;-80
2021/08/19 06:43:25;;;;;;;3.67;2.33;;;;;;;;;;5016564;28;20044;-80
2021/08/19 06:45:51;;;;;;;4.68;3.45;;;;;;;;;;5035898;28;20029;-80
2021/08/19 06:48:17;;;;;;;4.13;2.30;;;;;;;;;;5019020;28;20124;-80
2021/08/19 06:50:43;;;;;;;2.65;2.05;;;;;;;;;;5036487;28;20059;-80
2021/08/19 06:53:09;;;;;;;6.78;2.38;;;;;;;;;;5036988;28;20022;-80
2021/08/19 06:55:35;;;;;;;16.33;3.65;;;;;;;;;;5019635;28;20060;-80
2021/08/19 06:58:01;;;;;;;5.63;1.85;;;;;;;;;;5036677;28;20041;-80
2021/08/19 07:00:27;;;;;;;5.13;2.85;;;;;;;;;;5017893;28;20041;-79
2021/08/19 07:02:53;;;;;;;4.07;2.63;;;;;;;;;;5035844;28;20466;-79
2021/08/19 07:05:19;;;;;;;5.55;2.33;;;;;;;;;;5019794;28;20025;-79
2021/08/19 07:07:46;;;;;;;3.67;2.10;;;;;;;;;;5037787;28;20502;-80
2021/08/19 07:10:12;;;;;;;3.75;2.10;;;;;;;;;;5034909;28;20029;-80
2021/08/19 07:12:38;;;;;;;10.23;2.40;;;;;;;;;;5035627;28;20032;-80
2021/08/19 07:15:05;;;;;;;7.93;3.55;;;;;;;;;;5005870;28;20076;-80
2021/08/19 07:17:31;;;;;;;8.80;5.75;;;;;;;;;;5016031;28;20033;-80
2021/08/19 07:19:57;;;;;;;4.30;2.53;;;;;;;;;;4998332;28;20613;-80
2021/08/19 07:22:23;;;;;;;3.92;2.70;;;;;;;;;;5015511;28;20033;-80
2021/08/19 07:24:49;;;;;;;3.65;2.42;;;;;;;;;;4998368;28;20033;-80
2021/08/19 07:27:15;;;;;;;5.93;2.60;;;;;;;;;;5016811;28;20080;-82
2021/08/19 07:29:42;;;;;;;4.78;2.38;;;;;;;;;;4998112;28;20058;-82
2021/08/19 07:32:08;;;;;;;5.93;2.40;;;;;;;;;;5016667;28;20398;-80
2021/08/19 07:34:34;;;;;;;4.90;2.47;;;;;;;;;;4998331;28;20483;-80
2021/08/19 07:37:01;;;;;;;6.10;1.92;;;;;;;;;;5015804;28;20022;-80
2021/08/19 07:39:27;;;;;;;4.72;1.98;;;;;;;;;;5015472;28;20159;-80
2021/08/19 07:44:25;;;;;;;4.95;2.20;;;;;;;;;;5010500;28;20056;-77
2021/08/19 07:46:51;;;;;;;6.10;2.30;;;;;;;;;;5013369;28;20084;-78
2021/08/19 07:49:20;;;;;;;3.90;1.88;;;;;;;;;;5012625;28;20033;-77
2021/08/19 07:51:46;;;;;;;5.25;2.13;;;;;;;;;;5013359;28;20022;-78
2021/08/19 07:54:12;;;;;;;2.83;2.05;;;;;;;;;;5011859;28;20026;-77
2021/08/19 07:56:38;;;;;;;7.40;1.98;;;;;;;;;;5013213;28;20445;-77
2021/08/19 07:59:04;;;;;;;3.33;2.05;;;;;;;;;;5012549;28;20034;-77
2021/08/19 08:01:30;;;;;;;2.50;1.67;;;;;;;;;;5011758;28;20136;-78
2021/08/19 08:04:03;;;;;;;2.95;1.80;;;;;;;;;;5012890;28;20049;-77
2021/08/19 08:06:29;;;;;;;2.28;1.63;;;;;;;;;;5011218;28;20448;-78
2021/08/19 08:08:55;;;;;;;2.83;1.80;;;;;;;;;;5012472;28;20406;-76
2021/08/19 08:11:21;;;;;;;5.32;2.00;;;;;;;;;;5013178;28;20029;-77
2021/08/19 08:13:47;;;;;;;3.03;1.85;;;;;;;;;;5012621;28;20037;-77
2021/08/19 08:16:13;;;;;;;4.00;2.55;;;;;;;;;;5012686;28;20038;-77
2021/08/19 08:18:39;;;;;;;4.03;1.67;;;;;;;;;;5011670;28;20026;-77
2021/08/19 08:21:05;;;;;;;5.18;2.10;;;;;;;;;;5012309;28;20048;-77
2021/08/19 08:23:36;;;;;;;3.65;1.75;;;;;;;;;;5012474;28;20462;-77
2021/08/19 08:26:03;;;;;;;2.60;1.60;;;;;;;;;;5012514;28;20113;-77
2021/08/19 08:28:30;;;;;;;2.58;1.50;;;;;;;;;;5012520;28;20221;-77
2021/08/19 08:30:57;;;;;;;2.72;1.50;;;;;;;;;;5012115;28;20034;-77
2021/08/19 08:33:23;;;;;;;4.20;1.63;;;;;;;;;;5012358;28;20048;-76
2021/08/19 08:35:51;;;;;;;2.88;1.83;;;;;;;;;;5012256;28;20095;-77
2021/08/19 08:38:18;;;;;;;3.72;1.60;;;;;;;;;;5012414;28;20028;-77
2021/08/19 08:40:46;;;;;;;2.38;1.63;;;;;;;;;;5011902;28;20037;-77
2021/08/19 08:43:12;;;;;;;3.20;1.58;;;;;;;;;;5012037;28;20475;-77
2021/08/19 08:45:38;;;;;;;3.85;1.40;;;;;;;;;;5012274;28;20034;-78
2021/08/19 08:48:06;;;;;;;5.07;1.60;;;;;;;;;;5012322;28;20018;-77
2021/08/19 08:50:32;;;;;;;3.65;1.60;;;;;;;;;;5010393;28;20018;-77
2021/08/19 08:52:58;;;;;;;3.78;1.60;;;;;;;;;;5012126;28;20106;-76
2021/08/19 08:55:25;;;;;;;2.25;1.20;;;;;;;;;;5012199;28;20022;-77
2021/08/19 08:57:52;;;;;;;2.15;1.23;;;;;;;;;;5012151;28;20025;-77
2021/08/19 09:00:18;;;;;;;4.32;1.35;;;;;;;;;;5010391;28;20033;-76
2021/08/19 09:02:44;;;;;;;2.83;1.50;;;;;;;;;;5010806;28;20068;-77
2021/08/19 09:05:20;;;;;;;3.05;1.27;;;;;;;;;;5011790;28;20179;-77
2021/08/19 09:07:54;;;;;;;2.95;1.30;;;;;;;;;;5012047;28;20018;-77
2021/08/19 09:10:21;;;;;;;3.33;1.33;;;;;;;;;;5011645;28;20026;-79
2021/08/19 09:12:47;;;;;;;1.83;1.15;;;;;;;;;;5011950;28;20072;-78
2021/08/19 09:15:14;;;;;;;3.55;1.45;;;;;;;;;;5011962;28;20029;-78
2021/08/19 09:17:44;;;;;;;3.22;1.23;;;;;;;;;;5012014;28;20037;-77
2021/08/19 09:20:11;;;;;;;1.45;1.20;;;;;;;;;;5010102;28;20030;-76
2021/08/19 09:22:50;;;;;;;4.03;1.40;;;;;;;;;;5011861;28;20026;-76
2021/08/19 09:25:25;;;;;;;5.93;1.88;;;;;;;;;;5011820;28;20394;-77
2021/08/19 09:28:10;;;;;;;2.35;1.42;;;;;;;;;;5015207;28;20060;-78
2021/08/19 09:30:36;;;;;;;2.08;1.10;;;;;;;;;;5020841;28;20025;-78
2021/08/19 09:33:03;;;;;;;2.35;1.38;;;;;;;;;;5022046;28;20033;-78
2021/08/19 09:35:30;;;;;;;2.53;1.17;;;;;;;;;;5021060;28;20506;-77
2021/08/19 09:37:56;;;;;;;3.08;1.10;;;;;;;;;;5022544;28;20022;-78
2021/08/19 09:40:22;;;;;;;1.52;1.08;;;;;;;;;;5020660;28;20025;-78
2021/08/19 09:42:48;;;;;;;3.95;1.40;;;;;;;;;;5022539;28;20120;-78
2021/08/19 09:45:19;;;;;;;3.63;1.27;;;;;;;;;;5020989;28;20038;-78
2021/08/19 09:47:45;;;;;;;2.47;1.40;;;;;;;;;;5021074;28;20022;-78
2021/08/19 09:50:13;;;;;;;2.97;1.42;;;;;;;;;;5021331;28;20014;-78
2021/08/19 09:52:39;;;;;;;2.03;1.23;;;;;;;;;;5020834;28;20026;-78
2021/08/19 09:55:23;;;;;;;2.60;1.30;;;;;;;;;;5021243;28;20030;-77
2021/08/19 09:57:49;;;;;;;2.30;1.27;;;;;;;;;;5022221;28;20370;-78
2021/08/19 10:00:29;;;;;;;1.85;0.98;;;;;;;;;;5019815;28;20116;-78
2021/08/19 10:02:56;;;;;;;3.38;1.20;;;;;;;;;;5020384;28;20034;-78
2021/08/19 10:05:22;;;;;;;4.50;1.40;;;;;;;;;;5021796;28;20048;-78
2021/08/19 10:07:48;;;;;;;2.35;1.13;;;;;;;;;;5020810;28;20034;-78
2021/08/19 10:10:14;;;;;;;2.88;1.20;;;;;;;;;;5022137;28;20018;-78
2021/08/19 10:12:41;;;;;;;5.13;1.40;;;;;;;;;;5020743;28;20057;-78
2021/08/19 10:15:08;;;;;;;3.75;1.30;;;;;;;;;;5022767;28;20034;-78
2021/08/19 10:17:35;;;;;;;4.15;1.42;;;;;;;;;;5021823;28;20022;-79
2021/08/19 10:20:02;;;;;;;1.30;0.93;;;;;;;;;;5020699;28;20041;-78
2021/08/19 10:22:28;;;;;;;1.38;1.17;;;;;;;;;;5020897;28;20053;-79
2021/08/19 10:24:56;;;;;;;2.42;1.30;;;;;;;;;;5020923;28;20080;-79
2021/08/19 10:27:27;;;;;;;2.00;1.40;;;;;;;;;;5019977;28;20028;-79
2021/08/19 10:29:54;;;;;;;1.85;1.33;;;;;;;;;;5021753;28;20049;-79
2021/08/19 10:32:25;;;;;;;4.15;1.30;;;;;;;;;;5022139;28;20030;-78
2021/08/19 10:34:57;;;;;;;4.95;1.38;;;;;;;;;;5019938;28;20034;-78
2021/08/19 10:37:59;;;;;;;2.25;1.30;;;;;;;;;;5021796;28;20026;-78
2021/08/19 10:40:27;;;;;;;3.53;1.35;;;;;;;;;;4979102;28;20031;-79
2021/08/19 10:42:57;;;;;;;1.73;1.00;;;;;;;;;;5009223;28;20041;-79
2021/08/19 10:45:29;;;;;;;2.35;1.10;;;;;;;;;;5020377;28;20097;-79
2021/08/19 10:47:55;;;;;;;1.13;1.00;;;;;;;;;;5020143;28;20022;-79
2021/08/19 10:50:31;;;;;;;2.33;1.50;;;;;;;;;;5020327;28;20025;-79
2021/08/19 10:53:09;;;;;;;2.05;1.40;;;;;;;;;;5019956;28;20057;-79
2021/08/19 10:55:41;;;;;;;1.88;1.20;;;;;;;;;;5021535;28;20030;-79
2021/08/19 10:58:22;;;;;;;2.85;1.08;;;;;;;;;;5021206;28;20029;-79
2021/08/19 11:00:48;;;;;;;2.40;1.15;;;;;;;;;;5019124;28;20040;-79
2021/08/19 11:03:33;;;;;;;1.65;1.15;;;;;;;;;;5021460;28;20441;-79
2021/08/19 11:05:59;;;;;;;1.88;1.00;;;;;;;;;;5021010;28;20061;-79
2021/08/19 11:08:40;;;;;;;1.90;1.00;;;;;;;;;;5021466;28;20030;-79
2021/08/19 11:11:06;;;;;;;1.58;1.13;;;;;;;;;;5021055;28;20518;-78
2021/08/19 11:13:36;;;;;;;2.78;1.15;;;;;;;;;;5020677;28;20057;-79
2021/08/19 11:16:13;;;;;;;1.98;1.02;;;;;;;;;;5019817;28;20507;-78
2021/08/19 11:18:40;;;;;;;2.72;1.10;;;;;;;;;;5020850;28;20408;-79
2021/08/19 11:21:07;;;;;;;2.08;1.15;;;;;;;;;;5020855;28;20030;-79
2021/08/19 11:23:38;;;;;;;1.65;1.15;;;;;;;;;;5020889;28;20447;-79
2021/08/19 11:26:04;;;;;;;1.73;1.00;;;;;;;;;;5019818;28;20026;-79
2021/08/19 11:28:34;;;;;;;1.50;1.00;;;;;;;;;;5020003;28;20085;-79
2021/08/19 11:31:00;;;;;;;1.88;1.40;;;;;;;;;;5019710;28;20037;-78
2021/08/19 11:33:27;;;;;;;4.10;1.08;;;;;;;;;;5021014;28;20029;-77
2021/08/19 11:35:54;;;;;;;5.20;1.20;;;;;;;;;;5003570;28;20050;-78
2021/08/19 11:38:22;;;;;;;3.83;1.15;;;;;;;;;;5019535;28;20524;-79
2021/08/19 11:40:49;;;;;;;2.63;1.38;;;;;;;;;;5019922;28;20046;-79
2021/08/19 11:43:29;;;;;;;1.50;1.05;;;;;;;;;;5020419;28;20037;-79
2021/08/19 11:46:07;;;;;;;2.42;1.10;;;;;;;;;;5019199;28;20033;-78
2021/08/19 11:48:35;;;;;;;2.40;0.88;;;;;;;;;;5020367;28;20022;-79
2021/08/19 11:51:02;;;;;;;1.88;0.70;;;;;;;;;;5019953;28;20029;-79
2021/08/19 11:53:28;;;;;;;1.38;0.70;;;;;;;;;;5019782;28;20047;-79
2021/08/19 11:55:54;;;;;;;2.25;0.70;;;;;;;;;;5021518;28;20116;-79
2021/08/19 11:58:24;;;;;;;3.10;0.80;;;;;;;;;;5019240;28;20038;-79
2021/08/19 12:00:57;;;;;;;3.92;1.00;;;;;;;;;;5019179;28;20123;-80
2021/08/19 12:03:23;;;;;;;2.67;0.85;;;;;;;;;;5020069;28;20487;-78
2021/08/19 12:06:03;;;;;;;1.75;0.90;;;;;;;;;;5014474;28;20029;-78
2021/08/19 12:08:30;;;;;;;1.23;0.77;;;;;;;;;;5014063;28;20521;-78
2021/08/19 12:10:57;;;;;;;3.08;0.80;;;;;;;;;;4996618;28;20022;-78
2021/08/19 12:13:23;;;;;;;0.98;0.75;;;;;;;;;;5014190;28;20074;-78
2021/08/19 12:15:49;;;;;;;0.80;0.80;;;;;;;;;;5012798;28;20033;-78
2021/08/19 12:18:20;;;;;;;1.90;1.05;;;;;;;;;;5014299;28;20053;-78
2021/08/19 12:20:46;;;;;;;1.50;0.90;;;;;;;;;;5014053;28;20025;-78
2021/08/19 12:23:15;;;;;;;1.48;0.90;;;;;;;;;;5025649;28;20022;-77
2021/08/19 12:25:41;;;;;;;4.07;1.17;;;;;;;;;;5021625;28;20037;-78
2021/08/19 12:28:09;;;;;;;1.90;0.90;;;;;;;;;;5030787;28;20097;-77
2021/08/19 12:30:35;;;;;;;1.38;0.80;;;;;;;;;;5025248;28;20042;-78
2021/08/19 12:33:02;;;;;;;1.63;0.98;;;;;;;;;;5014869;28;20052;-78
2021/08/19 12:35:28;;;;;;;1.40;0.90;;;;;;;;;;5013100;28;20111;-78
2021/08/19 12:37:55;;;;;;;0.85;0.63;;;;;;;;;;5013148;28;20491;-78
2021/08/19 12:40:26;;;;;;;2.47;1.35;;;;;;;;;;5013690;28;20464;-78
2021/08/19 12:43:03;;;;;;;1.42;0.70;;;;;;;;;;5014134;28;20034;-78
2021/08/19 12:45:29;;;;;;;3.90;0.75;;;;;;;;;;5014078;28;20026;-77
2021/08/19 12:48:02;;;;;;;2.20;0.60;;;;;;;;;;5013777;28;20077;-78
2021/08/19 12:50:28;;;;;;;0.85;0.68;;;;;;;;;;5013714;28;20022;-78
2021/08/19 12:53:04;;;;;;;0.70;0.45;;;;;;;;;;5013924;28;20056;-78
2021/08/19 12:55:30;;;;;;;1.08;0.50;;;;;;;;;;5015969;28;20356;-78
2021/08/19 12:57:56;;;;;;;1.73;0.73;;;;;;;;;;5013986;28;20123;-78
2021/08/19 13:00:26;;;;;;;1.48;0.70;;;;;;;;;;5012464;28;20560;-78
2021/08/19 13:02:53;;;;;;;1.02;0.60;;;;;;;;;;4996852;28;20105;-78
2021/08/19 13:05:20;;;;;;;1.42;0.60;;;;;;;;;;5018065;28;20118;-78
2021/08/19 13:07:50;;;;;;;1.60;0.70;;;;;;;;;;5002400;28;20033;-78
2021/08/19 13:10:17;;;;;;;3.38;0.73;;;;;;;;;;5018066;28;20029;-78
2021/08/19 13:12:43;;;;;;;1.13;0.60;;;;;;;;;;5018725;28;20026;-78
2021/08/19 13:15:10;;;;;;;2.38;0.75;;;;;;;;;;5020260;28;20052;-78
2021/08/19 13:17:36;;;;;;;0.70;0.60;;;;;;;;;;5021030;28;20022;-77
2021/08/19 13:20:02;;;;;;;2.63;0.73;;;;;;;;;;5018651;28;20030;-76
2021/08/19 13:22:28;;;;;;;1.98;0.75;;;;;;;;;;5020026;28;20501;-78
2021/08/19 13:24:54;;;;;;;1.17;0.65;;;;;;;;;;5002594;28;20030;-77
2021/08/19 13:27:23;;;;;;;1.88;0.60;;;;;;;;;;5018632;28;20030;-77
2021/08/19 13:29:49;;;;;;;1.63;0.60;;;;;;;;;;5019418;28;20022;-77
2021/08/19 13:32:15;;;;;;;1.33;0.60;;;;;;;;;;5019535;28;20053;-78
2021/08/19 13:34:42;;;;;;;1.90;0.52;;;;;;;;;;5018647;28;20026;-78
2021/08/19 13:37:08;;;;;;;1.80;0.70;;;;;;;;;;5020011;28;20486;-78
2021/08/19 13:39:35;;;;;;;0.98;0.57;;;;;;;;;;5019209;28;20100;-76
2021/08/19 13:42:01;;;;;;;2.15;0.63;;;;;;;;;;5019590;28;20026;-77
2021/08/19 13:44:27;;;;;;;1.98;0.88;;;;;;;;;;5048539;22;20069;-79
2021/08/19 13:46:54;;;;;;;1.23;0.90;;;;;;;;;;5033553;28;20029;-79
2021/08/19 13:49:20;;;;;;;1.98;0.80;;;;;;;;;;5033685;28;20112;-80
2021/08/19 13:51:46;;;;;;;1.15;0.80;;;;;;;;;;5034512;28;20571;-79
2021/08/19 13:54:12;;;;;;;1.65;0.80;;;;;;;;;;5043943;28;20029;-80
2021/08/19 13:56:38;;;;;;;1.63;0.90;;;;;;;;;;5053149;28;20060;-79
2021/08/19 13:59:06;;;;;;;4.68;0.85;;;;;;;;;;5053499;28;20057;-80
2021/08/19 14:01:32;;;;;;;1.75;0.88;;;;;;;;;;5059346;28;20029;-78
2021/08/19 14:03:58;;;;;;;1.35;0.85;;;;;;;;;;5059571;28;20037;-78
2021/08/19 14:06:25;;;;;;;1.15;0.75;;;;;;;;;;5052616;28;20087;-79
2021/08/19 14:08:52;;;;;;;1.23;0.80;;;;;;;;;;5053145;28;20029;-78
2021/08/19 14:11:18;;;;;;;1.83;0.80;;;;;;;;;;5053969;28;20021;-79
2021/08/19 14:13:44;;;;;;;1.45;0.70;;;;;;;;;;5053170;28;20501;-79
2021/08/19 14:16:14;;;;;;;1.48;0.85;;;;;;;;;;5050121;28;20033;-79
2021/08/19 14:18:40;;;;;;;1.15;0.73;;;;;;;;;;5049926;28;20025;-79
2021/08/19 14:21:07;;;;;;;1.85;0.93;;;;;;;;;;5049410;28;20119;-79
2021/08/19 14:23:34;;;;;;;1.27;0.70;;;;;;;;;;5050363;28;20047;-79
2021/08/19 14:25:59;;;;;;;1.67;0.85;;;;;;;;;;5053277;28;20282;-79
2021/08/19 14:28:26;;;;;;;1.25;0.88;;;;;;;;;;5052336;28;20097;-79
2021/08/19 14:30:52;;;;;;;1.40;0.80;;;;;;;;;;5052922;28;20022;-79
2021/08/19 14:33:18;;;;;;;1.98;1.17;;;;;;;;;;5048341;28;20061;-79
2021/08/19 14:35:44;;;;;;;2.25;1.10;;;;;;;;;;5049712;28;20042;-80
2021/08/19 14:38:10;;;;;;;2.42;0.82;;;;;;;;;;5049480;28;20060;-79
2021/08/19 14:40:38;;;;;;;2.63;1.00;;;;;;;;;;5031962;28;20030;-79
2021/08/19 14:43:04;;;;;;;1.45;1.13;;;;;;;;;;5051483;28;20028;-79
2021/08/19 14:45:31;;;;;;;1.75;1.15;;;;;;;;;;5051356;28;20053;-79